createdAt,value
2022-10-02T00:02:03.031Z,1.80
2022-10-02T00:04:37.006Z,2.55
2022-10-02T00:07:06.955Z,1.90
2022-10-02T00:09:37.749Z,2.00
2022-10-02T00:12:08.680Z,2.03
2022-10-02T00:14:37.189Z,1.60
2022-10-02T00:17:04.516Z,1.73
2022-10-02T00:19:30.994Z,1.83
2022-10-02T00:22:03.433Z,1.83
2022-10-02T00:24:46.181Z,2.20
2022-10-02T00:27:21.708Z,1.88
2022-10-02T00:29:52.995Z,1.80
2022-10-02T00:32:37.760Z,1.88
2022-10-02T00:35:22.597Z,2.45
2022-10-02T00:38:07.703Z,2.00
2022-10-02T00:40:34.061Z,2.20
2022-10-02T00:43:05.092Z,1.83
2022-10-02T00:45:37.633Z,2.78
2022-10-02T00:48:22.778Z,2.75
2022-10-02T00:51:07.968Z,1.70
2022-10-02T00:54:00.088Z,1.50
2022-10-02T00:56:31.165Z,3.45
2022-10-02T00:58:57.448Z,2.17
2022-10-02T01:01:28.383Z,2.67
2022-10-02T01:03:56.919Z,1.80
2022-10-02T01:06:25.127Z,1.83
2022-10-02T01:08:52.202Z,1.95
2022-10-02T01:11:19.882Z,2.42
2022-10-02T01:13:46.403Z,1.98
2022-10-02T01:16:13.311Z,2.70
2022-10-02T01:18:40.531Z,2.42
2022-10-02T01:21:13.943Z,2.05
2022-10-02T01:23:46.465Z,2.67
2022-10-02T01:26:13.049Z,1.90
2022-10-02T01:28:39.757Z,1.77
2022-10-02T01:31:07.744Z,2.42
2022-10-02T01:33:35.227Z,2.83
2022-10-02T01:36:02.135Z,1.60
2022-10-02T01:38:28.910Z,2.38
2022-10-02T01:40:55.237Z,2.50
2022-10-02T01:43:41.168Z,1.95
2022-10-02T01:46:10.484Z,1.70
2022-10-02T01:51:15.429Z,2.28
2022-10-02T01:53:45.424Z,2.15
2022-10-02T01:56:17.959Z,2.42
2022-10-02T01:59:08.076Z,1.92
2022-10-02T02:01:58.812Z,2.17
2022-10-02T02:04:28.950Z,2.65
2022-10-02T02:07:09.215Z,1.65
2022-10-02T02:09:39.926Z,1.98
2022-10-02T02:12:09.641Z,2.17
2022-10-02T02:14:38.664Z,2.08
2022-10-02T02:17:11.683Z,2.40
2022-10-02T02:19:43.118Z,2.05
2022-10-02T02:22:13.025Z,3.20
2022-10-02T02:24:44.208Z,1.70
2022-10-02T02:27:13.876Z,2.20
2022-10-02T02:29:41.334Z,2.47
2022-10-02T02:32:09.816Z,2.75
2022-10-02T02:34:40.042Z,1.73
2022-10-02T02:37:09.687Z,1.70
2022-10-02T02:39:47.310Z,2.10
2022-10-02T02:42:17.690Z,2.55
2022-10-02T02:44:48.562Z,1.40
2022-10-02T02:47:14.853Z,1.73
2022-10-02T02:49:41.148Z,2.00
2022-10-02T02:52:09.546Z,2.03
2022-10-02T02:54:37.848Z,2.45
2022-10-02T02:57:06.268Z,1.70
2022-10-02T02:59:34.133Z,1.73
2022-10-02T03:02:00.588Z,1.98
2022-10-02T03:04:27.189Z,1.55
2022-10-02T03:06:57.470Z,2.05
2022-10-02T03:09:24.942Z,1.95
2022-10-02T03:11:54.427Z,1.70
2022-10-02T03:17:13.375Z,2.08
2022-10-02T03:19:42.692Z,2.35
2022-10-02T03:22:20.421Z,2.00
2022-10-02T03:24:52.543Z,1.63
2022-10-02T03:27:35.010Z,1.85
2022-10-02T03:30:03.593Z,1.60
2022-10-02T03:32:30.959Z,1.55
2022-10-02T03:34:57.654Z,1.90
2022-10-02T03:37:24.978Z,1.80
2022-10-02T03:39:52.895Z,1.58
2022-10-02T03:42:23.259Z,1.75
2022-10-02T03:44:49.660Z,2.15
2022-10-02T03:47:16.389Z,1.80
2022-10-02T03:49:42.693Z,1.80
2022-10-02T03:52:15.399Z,1.85
2022-10-02T03:54:41.973Z,1.50
2022-10-02T03:57:12.387Z,1.98
2022-10-02T03:59:41.762Z,1.63
2022-10-02T04:02:29.242Z,1.38
2022-10-02T04:04:59.762Z,2.45
2022-10-02T04:07:29.603Z,2.15
2022-10-02T04:10:20.043Z,1.50
2022-10-02T04:12:50.114Z,1.88
2022-10-02T04:15:19.521Z,2.10
2022-10-02T04:20:34.935Z,1.80
2022-10-02T04:23:10.863Z,2.10
2022-10-02T04:25:39.211Z,1.83
2022-10-02T04:28:07.855Z,2.60
2022-10-02T04:30:34.570Z,1.88
2022-10-02T04:33:12.741Z,1.58
2022-10-02T04:35:45.046Z,2.50
2022-10-02T04:38:26.739Z,1.70
2022-10-02T04:41:05.391Z,1.90
2022-10-02T04:43:42.431Z,2.00
2022-10-02T04:46:24.094Z,2.35
2022-10-02T04:48:59.799Z,1.95
2022-10-02T04:51:45.002Z,2.40
2022-10-02T04:54:18.623Z,1.75
2022-10-02T04:56:47.850Z,2.17
2022-10-02T04:59:31.267Z,1.90
2022-10-02T05:02:03.610Z,3.08
2022-10-02T05:04:36.055Z,1.95
2022-10-02T05:07:25.081Z,2.22
2022-10-02T05:10:09.878Z,2.15
2022-10-02T05:12:47.685Z,2.03
2022-10-02T05:15:26.017Z,2.85
2022-10-02T05:18:07.655Z,2.33
2022-10-02T05:20:51.543Z,1.90
2022-10-02T05:23:17.871Z,2.45
2022-10-02T05:25:44.179Z,2.15
2022-10-02T05:28:25.157Z,2.75
2022-10-02T05:31:04.117Z,2.65
2022-10-02T05:33:39.078Z,3.08
2022-10-02T05:36:05.424Z,2.90
2022-10-02T05:38:41.085Z,2.05
2022-10-02T05:41:16.209Z,2.70
2022-10-02T05:43:46.339Z,2.78
2022-10-02T05:46:22.631Z,2.38
2022-10-02T05:49:07.838Z,2.28
2022-10-02T05:51:41.653Z,1.88
2022-10-02T05:54:16.409Z,3.13
2022-10-02T05:56:51.909Z,2.45
2022-10-02T05:59:18.529Z,2.10
2022-10-02T06:01:47.084Z,2.03
2022-10-02T06:04:17.412Z,1.77
2022-10-02T06:06:48.786Z,2.17
2022-10-02T06:09:20.012Z,1.63
2022-10-02T06:11:49.968Z,1.77
2022-10-02T06:14:38.829Z,3.22
2022-10-02T06:17:05.217Z,1.58
2022-10-02T06:19:44.263Z,2.70
2022-10-02T06:22:14.735Z,2.10
2022-10-02T06:24:47.209Z,1.70
2022-10-02T06:27:17.598Z,1.70
2022-10-02T06:29:50.708Z,2.00
2022-10-02T06:32:21.469Z,1.83
2022-10-02T06:34:48.881Z,1.88
2022-10-02T06:37:27.765Z,2.28
2022-10-02T06:40:00.169Z,2.30
2022-10-02T06:42:33.023Z,1.92
2022-10-02T06:45:06.103Z,2.67
2022-10-02T06:47:43.659Z,1.90
2022-10-02T06:50:28.428Z,1.77
2022-10-02T06:52:54.747Z,1.83
2022-10-02T06:55:41.154Z,2.00
2022-10-02T06:58:25.334Z,2.17
2022-10-02T07:01:00.874Z,1.75
2022-10-02T07:03:33.309Z,1.70
2022-10-02T07:05:59.635Z,1.95
2022-10-02T07:08:37.408Z,1.88
2022-10-02T07:11:20.924Z,1.90
2022-10-02T07:14:01.817Z,1.48
2022-10-02T07:16:40.629Z,1.77
2022-10-02T07:19:13.109Z,1.65
2022-10-02T07:21:44.851Z,1.85
2022-10-02T07:24:40.901Z,1.80
2022-10-02T07:27:07.156Z,1.60
2022-10-02T07:29:33.452Z,1.60
2022-10-02T07:32:19.091Z,1.92
2022-10-02T07:34:48.874Z,1.58
2022-10-02T07:37:18.265Z,1.63
2022-10-02T07:42:20.105Z,1.80
2022-10-02T07:44:46.753Z,1.85
2022-10-02T07:47:21.543Z,2.35
2022-10-02T07:49:55.541Z,1.80
2022-10-02T07:52:40.726Z,1.60
2022-10-02T07:55:10.343Z,2.30
2022-10-02T07:57:52.410Z,1.80
2022-10-02T08:00:19.884Z,1.60
2022-10-02T08:03:06.513Z,1.77
2022-10-02T08:05:34.913Z,1.70
2022-10-02T08:08:03.732Z,2.08
2022-10-02T08:10:35.944Z,1.90
2022-10-02T08:13:12.319Z,1.77
2022-10-02T08:15:41.992Z,1.75
2022-10-02T08:18:33.149Z,1.85
2022-10-02T08:21:01.099Z,1.77
2022-10-02T08:23:43.942Z,1.38
2022-10-02T08:26:35.404Z,2.00
2022-10-02T08:29:05.978Z,1.90
2022-10-02T08:31:32.901Z,2.22
2022-10-02T08:34:11.937Z,1.73
2022-10-02T08:36:59.419Z,1.50
2022-10-02T08:39:38.079Z,1.83
2022-10-02T08:42:08.021Z,1.80
2022-10-02T08:44:55.087Z,1.60
2022-10-02T08:47:25.030Z,2.15
2022-10-02T08:50:19.928Z,1.90
2022-10-02T08:52:47.034Z,2.55
2022-10-02T08:55:26.101Z,2.08
2022-10-02T08:57:52.557Z,1.98
2022-10-02T09:00:27.620Z,2.03
2022-10-02T09:03:02.100Z,1.80
2022-10-02T09:05:39.507Z,1.40
2022-10-02T09:08:26.416Z,1.95
2022-10-02T09:11:11.372Z,1.90
2022-10-02T09:13:42.334Z,1.55
2022-10-02T09:16:09.065Z,1.80
2022-10-02T09:18:51.444Z,2.17
2022-10-02T09:21:23.790Z,1.80
2022-10-02T09:24:05.491Z,1.55
2022-10-02T09:26:50.477Z,1.83
2022-10-02T09:29:16.811Z,1.45
2022-10-02T09:31:49.207Z,1.65
2022-10-02T09:34:42.774Z,1.75
2022-10-02T09:37:09.113Z,1.40
2022-10-02T09:39:51.576Z,1.92
2022-10-02T09:42:38.194Z,1.60
2022-10-02T09:45:15.187Z,1.65
2022-10-02T09:48:04.836Z,1.58
2022-10-02T09:50:46.603Z,1.63
2022-10-02T09:53:22.193Z,1.90
2022-10-02T09:55:50.106Z,1.50
2022-10-02T09:58:19.246Z,1.10
2022-10-02T10:03:36.828Z,1.42
2022-10-02T10:06:06.081Z,1.30
2022-10-02T10:08:51.354Z,1.60
2022-10-02T10:11:20.677Z,1.02
2022-10-02T10:14:05.844Z,1.60
2022-10-02T10:16:51.140Z,1.50
2022-10-02T10:19:49.959Z,1.60
2022-10-02T10:25:01.463Z,1.40
2022-10-02T10:27:40.152Z,1.58
2022-10-02T10:30:09.465Z,1.50
2022-10-02T10:32:54.839Z,1.50
2022-10-02T10:35:24.477Z,1.50
2022-10-02T10:38:09.525Z,1.23
2022-10-02T10:40:38.309Z,1.42
2022-10-02T10:43:08.643Z,1.45
2022-10-02T10:45:55.667Z,1.35
2022-10-02T10:48:28.305Z,1.40
2022-10-02T10:51:14.387Z,1.58
2022-10-02T10:53:47.641Z,1.30
2022-10-02T10:56:23.095Z,1.35
2022-10-02T10:59:01.071Z,1.50
2022-10-02T11:01:45.922Z,1.45
2022-10-02T11:04:30.973Z,1.48
2022-10-02T11:06:57.307Z,1.23
2022-10-02T11:09:42.485Z,1.48
2022-10-02T11:12:33.189Z,1.55
2022-10-02T11:15:18.454Z,1.30
2022-10-02T11:18:02.601Z,1.20
2022-10-02T11:20:29.985Z,1.50
2022-10-02T11:23:11.987Z,1.50
2022-10-02T11:25:53.653Z,1.42
2022-10-02T11:28:38.963Z,1.65
2022-10-02T11:31:11.510Z,1.08
2022-10-02T11:33:44.407Z,1.58
2022-10-02T11:36:10.685Z,1.58
2022-10-02T11:38:50.458Z,1.40
2022-10-02T11:41:16.743Z,1.17
2022-10-02T11:43:44.219Z,1.20
2022-10-02T11:46:14.528Z,1.10
2022-10-02T11:48:41.087Z,1.52
2022-10-02T11:51:13.255Z,1.65
2022-10-02T11:53:42.554Z,1.63
2022-10-02T11:56:16.798Z,1.30
2022-10-02T11:58:49.090Z,1.15
2022-10-02T12:01:16.834Z,1.70
2022-10-02T12:03:54.353Z,1.67
2022-10-02T12:06:53.271Z,1.45
2022-10-02T12:09:35.898Z,1.45
2022-10-02T12:12:12.678Z,1.30
2022-10-02T12:14:43.051Z,1.70
2022-10-02T12:17:18.368Z,1.25
2022-10-02T12:20:22.528Z,1.65
2022-10-02T12:23:15.143Z,1.10
2022-10-02T12:26:02.803Z,1.48
2022-10-02T12:28:38.430Z,1.20
2022-10-02T12:31:07.850Z,1.17
2022-10-02T12:33:45.801Z,1.55
2022-10-02T12:36:38.700Z,1.20
2022-10-02T12:39:12.970Z,1.23
2022-10-02T12:42:05.867Z,1.30
2022-10-02T12:44:32.710Z,1.83
2022-10-02T12:47:13.318Z,2.13
2022-10-02T12:49:58.446Z,2.22
2022-10-02T12:52:28.218Z,1.58
2022-10-02T12:55:17.126Z,1.50
2022-10-02T12:58:10.181Z,1.27
2022-10-02T13:00:45.735Z,1.30
2022-10-02T13:03:15.131Z,1.30
2022-10-02T13:05:52.965Z,1.35
2022-10-02T13:08:31.557Z,1.65
2022-10-02T13:13:36.091Z,1.20
2022-10-02T13:16:07.310Z,1.30
2022-10-02T13:18:43.319Z,1.35
2022-10-02T13:21:13.482Z,1.38
2022-10-02T13:23:58.229Z,2.13
2022-10-02T13:26:36.605Z,1.42
2022-10-02T13:29:06.335Z,1.73
2022-10-02T13:31:41.923Z,1.55
2022-10-02T13:34:38.190Z,1.30
2022-10-02T13:37:17.134Z,1.52
2022-10-02T13:40:22.278Z,1.50
2022-10-02T13:42:51.483Z,1.20
2022-10-02T13:45:20.523Z,1.40
2022-10-02T13:50:22.399Z,1.00
2022-10-02T13:53:00.890Z,1.15
2022-10-02T13:55:37.085Z,0.98
2022-10-02T13:58:06.181Z,0.90
2022-10-02T14:02:58.678Z,0.70
2022-10-02T14:05:34.886Z,0.80
2022-10-02T14:08:01.508Z,0.60
2022-10-02T14:10:39.860Z,1.02
2022-10-02T14:13:14.813Z,0.90
2022-10-02T14:15:46.722Z,0.77
2022-10-02T14:18:19.771Z,0.70
2022-10-02T14:21:04.979Z,0.65
2022-10-02T14:23:34.327Z,0.52
2022-10-02T14:26:00.590Z,1.02
2022-10-02T14:28:36.312Z,0.90
2022-10-02T14:31:21.870Z,1.00
2022-10-02T14:34:17.620Z,0.80
2022-10-02T14:36:47.276Z,1.00
2022-10-02T14:39:35.044Z,0.75
2022-10-02T14:42:10.555Z,0.88
2022-10-02T14:44:39.968Z,0.70
2022-10-02T14:47:15.327Z,0.70
2022-10-02T14:49:44.968Z,0.90
2022-10-02T14:52:11.239Z,2.47
2022-10-02T14:54:56.403Z,7.55
2022-10-02T14:57:29.729Z,4.60
2022-10-02T14:59:55.994Z,1.67
2022-10-02T15:02:43.321Z,1.20
2022-10-02T15:05:28.649Z,2.92
2022-10-02T15:07:55.562Z,2.83
2022-10-02T15:10:33.052Z,1.63
2022-10-02T15:13:09.850Z,2.33
2022-10-02T15:15:42.615Z,3.42
2022-10-02T15:18:24.347Z,2.75
2022-10-02T15:21:00.873Z,1.88
2022-10-02T15:23:41.378Z,1.25
2022-10-02T15:26:30.386Z,1.30
2022-10-02T15:29:10.108Z,1.00
2022-10-02T15:32:02.526Z,0.77
2022-10-02T15:34:32.902Z,1.40
2022-10-02T15:37:02.262Z,1.20
2022-10-02T15:42:03.817Z,3.00
2022-10-02T15:44:31.061Z,1.40
2022-10-02T15:47:04.018Z,1.30
2022-10-02T15:49:49.147Z,1.20
2022-10-02T15:52:27.727Z,1.17
2022-10-02T15:55:00.446Z,1.27
2022-10-02T15:57:45.362Z,1.30
2022-10-02T16:00:11.790Z,1.35
2022-10-02T16:02:45.208Z,1.05
2022-10-02T16:05:14.681Z,1.48
2022-10-02T16:07:41.150Z,1.08
2022-10-02T16:10:39.678Z,1.27
2022-10-02T16:13:26.034Z,1.08
2022-10-02T16:16:00.621Z,0.95
2022-10-02T16:18:26.933Z,1.00
2022-10-02T16:21:28.851Z,1.27
2022-10-02T16:24:02.222Z,1.20
2022-10-02T16:26:34.859Z,1.10
2022-10-02T16:29:04.584Z,1.30
2022-10-02T16:31:53.943Z,0.90
2022-10-02T16:34:20.265Z,1.50
2022-10-02T16:36:57.359Z,1.60
2022-10-02T16:39:23.793Z,1.02
2022-10-02T16:42:10.642Z,1.25
2022-10-02T16:44:37.072Z,1.17
2022-10-02T16:47:16.800Z,1.00
2022-10-02T16:49:49.588Z,1.70
2022-10-02T16:52:47.317Z,1.45
2022-10-02T16:55:34.077Z,1.30
2022-10-02T16:58:05.622Z,1.00
2022-10-02T17:00:38.207Z,1.08
2022-10-02T17:03:27.725Z,1.08
2022-10-02T17:05:58.899Z,1.00
2022-10-02T17:08:35.921Z,1.45
2022-10-02T17:11:05.683Z,0.95
2022-10-02T17:13:36.364Z,1.38
2022-10-02T17:16:11.222Z,1.52
2022-10-02T17:18:43.676Z,1.08
2022-10-02T17:21:19.677Z,1.17
2022-10-02T17:23:46.007Z,1.25
2022-10-02T17:26:20.743Z,1.20
2022-10-02T17:28:51.668Z,1.48
2022-10-02T17:31:24.489Z,1.30
2022-10-02T17:33:52.694Z,1.48
2022-10-02T17:36:35.957Z,1.00
2022-10-02T17:39:07.764Z,1.00
2022-10-02T17:41:34.997Z,1.10
2022-10-02T17:44:01.275Z,2.60
2022-10-02T17:46:30.630Z,1.50
2022-10-02T17:51:51.960Z,0.82
2022-10-02T17:54:52.976Z,1.40
2022-10-02T17:57:28.246Z,1.48
2022-10-02T18:00:13.503Z,1.30
2022-10-02T18:02:39.818Z,1.30
2022-10-02T18:05:18.444Z,0.70
2022-10-02T18:08:00.134Z,1.10
2022-10-02T18:10:41.790Z,1.27
2022-10-02T18:13:18.359Z,0.90
2022-10-02T18:15:53.980Z,0.95
2022-10-02T18:18:23.246Z,1.35
2022-10-02T18:20:58.363Z,0.98
2022-10-02T18:23:25.137Z,1.38
2022-10-02T18:26:13.413Z,1.10
2022-10-02T18:28:41.789Z,1.00
2022-10-02T18:31:51.108Z,1.00
2022-10-02T18:34:40.236Z,1.23
2022-10-02T18:37:12.924Z,0.90
2022-10-02T18:40:03.568Z,1.35
2022-10-02T18:42:51.046Z,0.80
2022-10-02T18:45:29.541Z,1.25
2022-10-02T18:48:02.740Z,1.40
2022-10-02T18:50:47.948Z,1.08
2022-10-02T18:53:28.758Z,1.02
2022-10-02T18:56:03.257Z,0.90
2022-10-02T18:58:48.947Z,0.88
2022-10-02T19:01:26.115Z,1.00
2022-10-02T19:03:58.348Z,0.82
2022-10-02T19:06:42.195Z,0.93
2022-10-02T19:09:08.639Z,1.17
2022-10-02T19:11:45.613Z,1.30
2022-10-02T19:14:13.507Z,0.90
2022-10-02T19:16:54.517Z,1.00
2022-10-02T19:19:24.133Z,1.05
2022-10-02T19:21:54.929Z,1.15
2022-10-02T19:24:26.098Z,1.40
2022-10-02T19:26:56.318Z,0.88
2022-10-02T19:29:36.779Z,0.80
2022-10-02T19:32:27.718Z,0.85
2022-10-02T19:35:20.922Z,0.88
2022-10-02T19:37:49.966Z,1.00
2022-10-02T19:40:19.335Z,0.90
2022-10-02T19:45:25.241Z,0.98
2022-10-02T19:50:24.498Z,0.80
2022-10-02T19:53:02.517Z,0.73
2022-10-02T19:55:33.832Z,0.75
2022-10-02T19:58:04.461Z,1.20
2022-10-02T20:00:32.191Z,1.20
2022-10-02T20:03:00.478Z,0.85
2022-10-02T20:05:30.124Z,0.60
2022-10-02T20:08:06.965Z,1.10
2022-10-02T20:11:03.472Z,0.70
2022-10-02T20:13:37.063Z,1.23
2022-10-02T20:16:31.093Z,0.60
2022-10-02T20:19:01.659Z,0.80
2022-10-02T20:22:10.464Z,0.50
2022-10-02T20:24:41.285Z,0.70
2022-10-02T20:27:17.675Z,1.30
2022-10-02T20:29:47.188Z,1.33
2022-10-02T20:32:24.348Z,0.88
2022-10-02T20:34:53.668Z,0.70
2022-10-02T20:37:26.248Z,0.80
2022-10-02T20:40:02.352Z,0.73
2022-10-02T20:42:31.185Z,0.70
2022-10-02T20:44:57.499Z,0.90
2022-10-02T20:47:27.825Z,0.68
2022-10-02T20:50:12.043Z,0.95
2022-10-02T20:52:41.414Z,0.85
2022-10-02T20:58:00.037Z,0.70
2022-10-02T21:00:47.148Z,1.33
2022-10-02T21:03:19.777Z,0.60
2022-10-02T21:05:54.381Z,0.63
2022-10-02T21:08:29.860Z,0.80
2022-10-02T21:11:15.021Z,0.73
2022-10-02T21:14:00.200Z,0.70
2022-10-02T21:16:36.139Z,0.57
2022-10-02T21:19:04.540Z,0.70
2022-10-02T21:21:53.695Z,1.15
2022-10-02T21:26:55.709Z,0.88
2022-10-02T21:29:40.739Z,0.80
2022-10-02T21:32:07.130Z,0.57
2022-10-02T21:34:48.781Z,0.60
2022-10-02T21:37:34.658Z,0.70
2022-10-02T21:40:19.928Z,1.00
2022-10-02T21:42:49.273Z,0.52
2022-10-02T21:45:23.963Z,0.95
2022-10-02T21:48:04.573Z,0.80
2022-10-02T21:50:42.136Z,0.70
2022-10-02T21:53:09.600Z,0.88
2022-10-02T21:55:51.165Z,0.60
2022-10-02T21:58:36.300Z,0.70
2022-10-02T22:01:21.773Z,0.50
2022-10-02T22:04:08.091Z,0.82
2022-10-02T22:06:39.681Z,0.70
2022-10-02T22:09:05.986Z,0.50
2022-10-02T22:11:51.225Z,0.80
2022-10-02T22:14:38.911Z,0.80
2022-10-02T22:17:11.289Z,0.63
2022-10-02T22:19:37.563Z,0.60
2022-10-02T22:22:10.008Z,0.50
2022-10-02T22:24:56.201Z,0.75
2022-10-02T22:27:42.116Z,0.60
2022-10-02T22:30:19.849Z,0.50
2022-10-02T22:33:08.220Z,0.82
2022-10-02T22:35:34.526Z,0.95
2022-10-02T22:38:19.766Z,0.60
2022-10-02T22:40:55.012Z,0.47
2022-10-02T22:43:26.690Z,0.50
2022-10-02T22:46:28.586Z,0.75
2022-10-02T22:48:57.577Z,0.70
2022-10-02T22:51:36.356Z,0.65
2022-10-02T22:54:08.341Z,0.60
2022-10-02T22:56:40.279Z,0.40
2022-10-02T22:59:11.702Z,0.55
2022-10-02T23:01:48.196Z,0.50
2022-10-02T23:04:20.379Z,0.60
2022-10-02T23:06:51.466Z,0.65
2022-10-02T23:09:26.546Z,0.60
2022-10-02T23:12:01.964Z,0.80
2022-10-02T23:14:28.255Z,0.50
2022-10-02T23:16:59.310Z,0.55
2022-10-02T23:19:37.402Z,0.70
2022-10-02T23:22:07.193Z,0.73
2022-10-02T23:24:51.338Z,0.65
2022-10-02T23:27:29.880Z,0.80
2022-10-02T23:29:59.271Z,0.60
2022-10-02T23:35:12.799Z,0.57
2022-10-02T23:37:42.241Z,0.50
2022-10-02T23:42:40.912Z,0.50
2022-10-02T23:45:16.417Z,0.63
2022-10-02T23:47:48.820Z,0.70
2022-10-02T23:50:28.545Z,0.70
2022-10-02T23:53:03.748Z,1.00
2022-10-02T23:55:45.106Z,1.00
2022-10-02T23:58:30.799Z,0.88
